Time;durP1;ratioP1;P1;durP2;ratioP2;P2;SDS_P1;SDS_P2;PMS_P1;PMS_P2;Temp;Humidity;BMP_temperature;BMP_pressure;BME280_temperature;BME280_humidity;BME280_pressure;Samples;Min_cycle;Max_cycle;Signal;HPM_P1;HPM_P2
2022/06/23 00:00:24;;;;;;;5.22;3.97;;;;;;;;;;5041506;28;20603;-50
2022/06/23 00:02:51;;;;;;;5.55;4.38;;;;;;;;;;5035354;28;20236;-50
2022/06/23 00:05:21;;;;;;;7.50;4.47;;;;;;;;;;5038382;28;20238;-51
2022/06/23 00:07:50;;;;;;;4.28;3.88;;;;;;;;;;5035601;28;20231;-50
2022/06/23 00:10:17;;;;;;;4.63;4.07;;;;;;;;;;5024634;28;20240;-50
2022/06/23 00:12:44;;;;;;;5.97;3.40;;;;;;;;;;5024069;28;20239;-51
2022/06/23 00:15:24;;;;;;;4.85;4.20;;;;;;;;;;5043863;28;20223;-50
2022/06/23 00:17:55;;;;;;;5.47;4.65;;;;;;;;;;5032598;28;20255;-51
2022/06/23 00:20:22;;;;;;;4.35;4.03;;;;;;;;;;5036835;28;20237;-49
2022/06/23 00:22:50;;;;;;;5.05;4.35;;;;;;;;;;5025070;28;20235;-50
2022/06/23 00:25:22;;;;;;;5.07;4.55;;;;;;;;;;5029730;28;20244;-51
2022/06/23 00:27:48;;;;;;;4.55;4.03;;;;;;;;;;5038816;28;20228;-50
2022/06/23 00:30:20;;;;;;;4.82;4.43;;;;;;;;;;5040163;28;21106;-51
2022/06/23 00:32:47;;;;;;;5.53;3.83;;;;;;;;;;5042578;28;20319;-51
2022/06/23 00:35:16;;;;;;;6.28;4.53;;;;;;;;;;5040283;28;20668;-50
2022/06/23 00:37:46;;;;;;;4.57;4.15;;;;;;;;;;5040452;28;20278;-51
2022/06/23 00:40:14;;;;;;;6.88;4.82;;;;;;;;;;5040695;28;20238;-51
2022/06/23 00:42:48;;;;;;;4.90;4.38;;;;;;;;;;5040809;28;20805;-52
2022/06/23 00:45:20;;;;;;;4.88;4.25;;;;;;;;;;5032572;28;20246;-51
2022/06/23 00:47:49;;;;;;;4.90;4.40;;;;;;;;;;5035158;28;20262;-51
2022/06/23 00:50:24;;;;;;;4.80;4.38;;;;;;;;;;5027319;28;21530;-51
2022/06/23 00:52:53;;;;;;;6.35;4.25;;;;;;;;;;5029935;28;20223;-50
2022/06/23 00:55:25;;;;;;;6.03;4.28;;;;;;;;;;5031156;28;20239;-50
2022/06/23 00:57:54;;;;;;;4.00;3.70;;;;;;;;;;5029277;28;20232;-51
2022/06/23 01:00:22;;;;;;;6.07;5.13;;;;;;;;;;5025825;28;20248;-50
2022/06/23 01:02:52;;;;;;;4.25;3.75;;;;;;;;;;5026678;28;20224;-51
2022/06/23 01:05:20;;;;;;;5.95;3.65;;;;;;;;;;5035239;28;20312;-52
2022/06/23 01:07:53;;;;;;;7.25;4.82;;;;;;;;;;5038422;28;20235;-51
2022/06/23 01:10:22;;;;;;;4.88;4.00;;;;;;;;;;5038679;28;20228;-51
2022/06/23 01:12:51;;;;;;;3.70;3.40;;;;;;;;;;5035566;28;20231;-51
2022/06/23 01:15:20;;;;;;;7.13;4.65;;;;;;;;;;5031891;28;20243;-51
2022/06/23 01:17:49;;;;;;;5.25;4.18;;;;;;;;;;5037763;28;20235;-52
2022/06/23 01:20:27;;;;;;;8.15;5.50;;;;;;;;;;5036597;28;20721;-51
2022/06/23 01:23:08;;;;;;;4.32;3.92;;;;;;;;;;5038381;28;20266;-51
2022/06/23 01:25:44;;;;;;;5.68;4.68;;;;;;;;;;5029167;28;20245;-51
2022/06/23 01:28:15;;;;;;;4.60;4.20;;;;;;;;;;5035051;28;20649;-51
2022/06/23 01:30:44;;;;;;;6.28;4.15;;;;;;;;;;5037599;28;20241;-51
2022/06/23 01:33:16;;;;;;;6.40;4.85;;;;;;;;;;5038851;28;20323;-51
2022/06/23 01:35:46;;;;;;;4.97;4.43;;;;;;;;;;5040819;28;20244;-53
2022/06/23 01:38:14;;;;;;;5.50;4.90;;;;;;;;;;5043812;28;20742;-51
2022/06/23 01:40:44;;;;;;;7.72;5.57;;;;;;;;;;5038959;28;20327;-51
2022/06/23 01:43:16;;;;;;;6.70;4.70;;;;;;;;;;5041057;28;20616;-52
2022/06/23 01:45:46;;;;;;;4.45;4.03;;;;;;;;;;5041797;28;20239;-51
2022/06/23 01:48:14;;;;;;;5.53;4.68;;;;;;;;;;5045168;28;20223;-51
2022/06/23 01:50:42;;;;;;;6.70;4.82;;;;;;;;;;5040989;28;20386;-52
2022/06/23 01:53:14;;;;;;;5.22;4.65;;;;;;;;;;5043034;28;20381;-50
2022/06/23 01:55:49;;;;;;;4.90;4.50;;;;;;;;;;5041481;28;20242;-50
2022/06/23 01:58:19;;;;;;;6.15;4.88;;;;;;;;;;5042066;28;20231;-51
2022/06/23 02:00:47;;;;;;;5.57;4.35;;;;;;;;;;5041911;28;20236;-51
2022/06/23 02:03:17;;;;;;;5.90;5.07;;;;;;;;;;5038733;28;20242;-51
2022/06/23 02:05:48;;;;;;;5.65;5.10;;;;;;;;;;5032727;28;20593;-51
2022/06/23 02:08:32;;;;;;;5.35;4.85;;;;;;;;;;5037423;28;21292;-51
2022/06/23 02:11:02;;;;;;;6.07;5.15;;;;;;;;;;5031836;28;20224;-53
2022/06/23 02:13:33;;;;;;;4.63;4.22;;;;;;;;;;5027063;28;20239;-51
2022/06/23 02:16:01;;;;;;;5.32;4.53;;;;;;;;;;5042371;28;20227;-50
2022/06/23 02:18:31;;;;;;;5.32;4.78;;;;;;;;;;5022918;28;20252;-51
2022/06/23 02:21:04;;;;;;;5.57;5.07;;;;;;;;;;5030697;28;20244;-51
2022/06/23 02:23:35;;;;;;;5.28;4.78;;;;;;;;;;5044817;28;20232;-51
2022/06/23 02:26:05;;;;;;;8.15;5.05;;;;;;;;;;5037127;28;20315;-51
2022/06/23 02:28:37;;;;;;;5.50;4.80;;;;;;;;;;5043171;28;20231;-51
2022/06/23 02:31:13;;;;;;;7.07;5.65;;;;;;;;;;5038573;28;20224;-50
2022/06/23 02:33:44;;;;;;;5.55;5.05;;;;;;;;;;5024399;28;20242;-50
2022/06/23 02:36:19;;;;;;;6.82;5.20;;;;;;;;;;5040460;28;20765;-50
2022/06/23 02:38:48;;;;;;;5.43;5.03;;;;;;;;;;5033664;28;20239;-51
2022/06/23 02:41:18;;;;;;;8.80;5.05;;;;;;;;;;5039292;28;20247;-51
2022/06/23 02:43:49;;;;;;;5.78;5.32;;;;;;;;;;5035102;28;20247;-51
2022/06/23 02:46:32;;;;;;;7.00;5.60;;;;;;;;;;5029263;28;20240;-50
2022/06/23 02:49:08;;;;;;;6.75;5.18;;;;;;;;;;5025607;28;20228;-52
2022/06/23 02:51:45;;;;;;;6.95;5.40;;;;;;;;;;5035034;28;20228;-51
2022/06/23 02:54:22;;;;;;;8.25;6.13;;;;;;;;;;5040460;28;20318;-51
2022/06/23 02:57:00;;;;;;;5.85;5.32;;;;;;;;;;5029169;28;20238;-51
2022/06/23 02:59:31;;;;;;;7.30;5.35;;;;;;;;;;5030771;28;20232;-51
2022/06/23 03:02:01;;;;;;;5.20;4.72;;;;;;;;;;5021743;28;20231;-51
2022/06/23 03:04:29;;;;;;;7.35;5.03;;;;;;;;;;5041695;28;20240;-50
2022/06/23 03:06:59;;;;;;;6.25;5.20;;;;;;;;;;5032355;28;20240;-51
2022/06/23 03:09:29;;;;;;;8.13;4.95;;;;;;;;;;5041652;28;20228;-51
2022/06/23 03:11:59;;;;;;;6.55;5.80;;;;;;;;;;5024179;28;20236;-52
2022/06/23 03:14:35;;;;;;;11.95;6.45;;;;;;;;;;5032432;28;20240;-50
2022/06/23 03:17:04;;;;;;;7.13;5.63;;;;;;;;;;5014614;28;20365;-50
2022/06/23 03:19:35;;;;;;;5.38;4.88;;;;;;;;;;5037347;28;20262;-51
2022/06/23 03:22:04;;;;;;;5.68;5.22;;;;;;;;;;5032229;28;20235;-50
2022/06/23 03:24:33;;;;;;;10.95;6.47;;;;;;;;;;5033644;28;20238;-51
2022/06/23 03:27:02;;;;;;;7.47;5.70;;;;;;;;;;5032752;28;20233;-50
2022/06/23 03:29:33;;;;;;;7.47;5.15;;;;;;;;;;5033540;28;20240;-51
2022/06/23 03:32:05;;;;;;;6.68;5.57;;;;;;;;;;5030338;28;20244;-50
2022/06/23 03:34:35;;;;;;;7.40;5.85;;;;;;;;;;5041323;28;20236;-51
2022/06/23 03:37:02;;;;;;;8.73;5.30;;;;;;;;;;5038089;28;20242;-51
2022/06/23 03:42:18;;;;;;;6.40;5.80;;;;;;;;;;5033017;28;20235;-50
2022/06/23 03:44:50;;;;;;;6.45;5.22;;;;;;;;;;5038202;28;20286;-52
2022/06/23 03:47:19;;;;;;;6.93;5.47;;;;;;;;;;5040570;28;20267;-51
2022/06/23 03:49:47;;;;;;;5.28;4.78;;;;;;;;;;5034620;28;20946;-51
2022/06/23 03:52:16;;;;;;;7.28;5.82;;;;;;;;;;5030473;28;20247;-51
2022/06/23 03:54:46;;;;;;;6.30;5.70;;;;;;;;;;5033689;28;20231;-51
2022/06/23 03:57:15;;;;;;;8.55;7.00;;;;;;;;;;5045561;28;20235;-51
2022/06/23 03:59:44;;;;;;;6.55;5.95;;;;;;;;;;5031883;28;20231;-51
2022/06/23 04:02:14;;;;;;;8.07;5.30;;;;;;;;;;5039995;28;20233;-52
2022/06/23 04:04:45;;;;;;;6.90;5.47;;;;;;;;;;5037315;28;20228;-51
2022/06/23 04:07:32;;;;;;;7.60;5.88;;;;;;;;;;5026995;28;20228;-50
2022/06/23 04:10:00;;;;;;;7.47;6.05;;;;;;;;;;5041562;28;20231;-51
2022/06/23 04:12:26;;;;;;;9.27;5.93;;;;;;;;;;5038191;28;20235;-51
2022/06/23 04:14:54;;;;;;;12.05;5.93;;;;;;;;;;5044930;28;20240;-51
2022/06/23 04:17:25;;;;;;;7.30;5.82;;;;;;;;;;5032803;28;20236;-50
2022/06/23 04:19:56;;;;;;;6.30;5.70;;;;;;;;;;5031044;28;20228;-51
2022/06/23 04:22:25;;;;;;;5.88;5.38;;;;;;;;;;5030988;28;20237;-50
2022/06/23 04:24:52;;;;;;;6.68;5.85;;;;;;;;;;5040705;28;20739;-51
2022/06/23 04:27:21;;;;;;;6.18;5.38;;;;;;;;;;5033069;28;20822;-50
2022/06/23 04:29:50;;;;;;;6.47;5.88;;;;;;;;;;5041566;28;20228;-51
2022/06/23 04:32:20;;;;;;;8.15;5.53;;;;;;;;;;5044291;28;20847;-51
2022/06/23 04:34:50;;;;;;;6.60;5.90;;;;;;;;;;5043978;28;20278;-51
2022/06/23 04:37:21;;;;;;;8.80;5.65;;;;;;;;;;5042664;28;20232;-51
2022/06/23 04:39:59;;;;;;;6.70;5.85;;;;;;;;;;5036752;28;20239;-50
2022/06/23 04:42:27;;;;;;;5.72;5.20;;;;;;;;;;5021994;28;20232;-50
2022/06/23 04:44:56;;;;;;;6.60;5.97;;;;;;;;;;5032524;28;20236;-50
2022/06/23 04:47:24;;;;;;;5.93;5.15;;;;;;;;;;5038227;28;20234;-52
2022/06/23 04:49:54;;;;;;;6.80;5.65;;;;;;;;;;5021411;28;20236;-50
2022/06/23 04:52:23;;;;;;;8.73;5.82;;;;;;;;;;5037843;28;20228;-51
2022/06/23 04:54:54;;;;;;;7.97;6.00;;;;;;;;;;5043182;28;20250;-51
2022/06/23 04:57:22;;;;;;;8.75;5.63;;;;;;;;;;5040775;28;20236;-50
2022/06/23 04:59:50;;;;;;;7.85;6.35;;;;;;;;;;5038660;28;20235;-51
2022/06/23 05:02:23;;;;;;;6.03;5.53;;;;;;;;;;5039265;28;20266;-52
2022/06/23 05:04:53;;;;;;;6.43;5.50;;;;;;;;;;5035430;28;20236;-51
2022/06/23 05:07:22;;;;;;;5.57;4.80;;;;;;;;;;5023839;28;20236;-51
2022/06/23 05:09:50;;;;;;;7.50;5.43;;;;;;;;;;5047178;28;20927;-51
2022/06/23 05:12:18;;;;;;;7.82;5.55;;;;;;;;;;5036451;28;20240;-50
2022/06/23 05:14:47;;;;;;;8.38;5.90;;;;;;;;;;5035820;28;20236;-51
2022/06/23 05:17:19;;;;;;;9.70;5.53;;;;;;;;;;5029991;28;20229;-50
2022/06/23 05:19:46;;;;;;;5.50;4.72;;;;;;;;;;5024416;28;20236;-51
2022/06/23 05:22:17;;;;;;;6.25;5.50;;;;;;;;;;5040581;28;20259;-51
2022/06/23 05:24:44;;;;;;;5.63;4.90;;;;;;;;;;5042003;28;20437;-51
2022/06/23 05:27:15;;;;;;;6.05;4.65;;;;;;;;;;5046146;28;20239;-51
2022/06/23 05:29:43;;;;;;;4.43;4.13;;;;;;;;;;5043645;28;20620;-50
2022/06/23 05:32:15;;;;;;;4.22;3.65;;;;;;;;;;5045227;28;20223;-50
2022/06/23 05:34:46;;;;;;;4.88;4.30;;;;;;;;;;5043225;28;20735;-51
2022/06/23 05:37:15;;;;;;;5.97;4.63;;;;;;;;;;5039062;28;20904;-51
2022/06/23 05:39:46;;;;;;;6.72;3.83;;;;;;;;;;5034275;28;20235;-51
2022/06/23 05:42:16;;;;;;;4.30;3.90;;;;;;;;;;5035662;28;20232;-51
2022/06/23 05:44:44;;;;;;;5.47;4.00;;;;;;;;;;5046835;28;20224;-50
2022/06/23 05:47:12;;;;;;;5.65;4.05;;;;;;;;;;5031612;28;20228;-50
2022/06/23 05:49:41;;;;;;;4.43;3.90;;;;;;;;;;5036215;28;20233;-52
2022/06/23 05:52:12;;;;;;;4.47;4.13;;;;;;;;;;5036097;28;20582;-51
2022/06/23 05:54:42;;;;;;;5.55;3.70;;;;;;;;;;5032065;28;20323;-51
2022/06/23 05:57:11;;;;;;;5.95;4.28;;;;;;;;;;5039764;28;20242;-51
2022/06/23 05:59:49;;;;;;;6.63;3.97;;;;;;;;;;5037173;28;20239;-51
2022/06/23 06:02:19;;;;;;;5.38;4.32;;;;;;;;;;5038670;28;20246;-51
2022/06/23 06:04:48;;;;;;;5.13;3.58;;;;;;;;;;5037466;28;21006;-51
2022/06/23 06:07:16;;;;;;;7.55;4.07;;;;;;;;;;5040317;28;20234;-51
2022/06/23 06:09:42;;;;;;;4.18;3.38;;;;;;;;;;5022005;28;20242;-50
2022/06/23 06:12:13;;;;;;;6.05;4.07;;;;;;;;;;5021712;28;20237;-51
2022/06/23 06:14:41;;;;;;;4.07;3.38;;;;;;;;;;5031301;28;20232;-50
2022/06/23 06:17:08;;;;;;;4.40;3.67;;;;;;;;;;5036164;28;20232;-51
2022/06/23 06:19:35;;;;;;;3.30;2.95;;;;;;;;;;5023011;28;20228;-52
2022/06/23 06:22:15;;;;;;;4.93;3.45;;;;;;;;;;5029752;28;20328;-52
2022/06/23 06:24:43;;;;;;;5.00;3.40;;;;;;;;;;5035717;28;20232;-50
2022/06/23 06:27:13;;;;;;;3.67;3.15;;;;;;;;;;5031813;28;20480;-52
2022/06/23 06:29:40;;;;;;;5.88;3.95;;;;;;;;;;5030478;28;20707;-50
2022/06/23 06:32:12;;;;;;;6.57;3.03;;;;;;;;;;5035244;28;20228;-50
2022/06/23 06:34:42;;;;;;;4.30;2.97;;;;;;;;;;5030145;28;20613;-51
2022/06/23 06:37:12;;;;;;;4.50;3.03;;;;;;;;;;5025889;28;20794;-50
2022/06/23 06:39:40;;;;;;;3.05;2.75;;;;;;;;;;5036455;28;20240;-51
2022/06/23 06:42:09;;;;;;;4.93;3.17;;;;;;;;;;5039079;28;20236;-50
2022/06/23 06:44:40;;;;;;;3.05;2.80;;;;;;;;;;5041071;28;20558;-50
2022/06/23 06:47:07;;;;;;;4.90;3.10;;;;;;;;;;5037984;28;20246;-50
2022/06/23 06:49:34;;;;;;;5.22;3.42;;;;;;;;;;5020764;28;20236;-51
2022/06/23 06:52:01;;;;;;;6.32;3.72;;;;;;;;;;5027311;28;20330;-52
2022/06/23 06:54:30;;;;;;;4.55;3.72;;;;;;;;;;5041903;28;20500;-52
2022/06/23 06:56:57;;;;;;;6.35;4.38;;;;;;;;;;5033301;28;20754;-51
2022/06/23 06:59:25;;;;;;;4.13;3.47;;;;;;;;;;5030238;28;20236;-52
2022/06/23 07:01:54;;;;;;;5.00;3.72;;;;;;;;;;5022260;28;20710;-51
2022/06/23 07:04:23;;;;;;;5.55;4.50;;;;;;;;;;5034026;28;20390;-50
2022/06/23 07:06:53;;;;;;;6.57;3.80;;;;;;;;;;5034743;28;20228;-51
2022/06/23 07:09:24;;;;;;;4.38;3.60;;;;;;;;;;5034325;28;20333;-51
2022/06/23 07:11:53;;;;;;;4.03;3.17;;;;;;;;;;5040998;28;20243;-51
2022/06/23 07:14:23;;;;;;;3.85;3.17;;;;;;;;;;5024945;28;20636;-51
2022/06/23 07:16:56;;;;;;;5.68;3.63;;;;;;;;;;5044124;28;20874;-50
2022/06/23 07:19:26;;;;;;;8.80;3.70;;;;;;;;;;5032057;28;20240;-50
2022/06/23 07:21:53;;;;;;;6.90;3.72;;;;;;;;;;5030003;28;20243;-51
2022/06/23 07:24:22;;;;;;;4.25;3.90;;;;;;;;;;5040572;28;20247;-51
2022/06/23 07:26:50;;;;;;;3.88;3.10;;;;;;;;;;5033669;28;20235;-51
2022/06/23 07:29:21;;;;;;;3.63;3.13;;;;;;;;;;5029640;28;20243;-51
2022/06/23 07:31:54;;;;;;;3.47;3.17;;;;;;;;;;5034514;28;20315;-51
2022/06/23 07:34:22;;;;;;;3.90;3.35;;;;;;;;;;5032443;28;20353;-55
2022/06/23 07:36:53;;;;;;;4.75;3.10;;;;;;;;;;5043712;28;20706;-51
2022/06/23 07:39:21;;;;;;;4.97;2.90;;;;;;;;;;5039019;28;20742;-51
2022/06/23 07:41:51;;;;;;;2.67;2.33;;;;;;;;;;5035875;28;20235;-52
2022/06/23 07:44:20;;;;;;;4.63;3.13;;;;;;;;;;5044428;28;20266;-52
2022/06/23 07:46:46;;;;;;;5.18;3.22;;;;;;;;;;5040468;28;20782;-50
2022/06/23 07:49:13;;;;;;;4.90;2.67;;;;;;;;;;5032634;28;20224;-52
2022/06/23 07:51:41;;;;;;;3.78;2.80;;;;;;;;;;5024101;28;20225;-52
2022/06/23 07:54:11;;;;;;;6.28;2.97;;;;;;;;;;5040449;28;20258;-51
2022/06/23 07:56:39;;;;;;;5.80;3.08;;;;;;;;;;5035443;28;20228;-51
2022/06/23 07:59:14;;;;;;;4.95;2.90;;;;;;;;;;5038265;28;20240;-51
2022/06/23 08:01:43;;;;;;;3.00;2.70;;;;;;;;;;5028483;28;20232;-51
2022/06/23 08:04:14;;;;;;;5.43;3.08;;;;;;;;;;5038068;28;20232;-51
2022/06/23 08:06:42;;;;;;;3.95;2.97;;;;;;;;;;5037179;28;20232;-52
2022/06/23 08:09:17;;;;;;;4.45;2.88;;;;;;;;;;5020609;28;20236;-51
2022/06/23 08:14:30;;;;;;;3.03;2.40;;;;;;;;;;5035767;28;20259;-51
2022/06/23 08:16:55;;;;;;;2.95;2.22;;;;;;;;;;5041512;28;20587;-51
2022/06/23 08:19:28;;;;;;;4.55;2.72;;;;;;;;;;5035786;28;20231;-51
2022/06/23 08:21:59;;;;;;;4.13;2.55;;;;;;;;;;5035784;28;20243;-51
2022/06/23 08:24:25;;;;;;;3.35;2.78;;;;;;;;;;5033851;28;20242;-51
2022/06/23 08:26:53;;;;;;;2.90;2.60;;;;;;;;;;5032362;28;20238;-50
2022/06/23 08:29:22;;;;;;;6.03;2.65;;;;;;;;;;5041856;28;20895;-50
2022/06/23 08:31:49;;;;;;;3.35;2.90;;;;;;;;;;5038677;28;20707;-51
2022/06/23 08:34:15;;;;;;;3.47;2.80;;;;;;;;;;5031085;28;20232;-51
2022/06/23 08:36:44;;;;;;;2.63;2.40;;;;;;;;;;5028563;28;20235;-50
2022/06/23 08:39:13;;;;;;;4.28;3.13;;;;;;;;;;5024597;28;21036;-50
2022/06/23 08:41:42;;;;;;;4.18;2.97;;;;;;;;;;5023916;28;20233;-52
2022/06/23 08:44:12;;;;;;;3.30;2.80;;;;;;;;;;5021783;28;20958;-52
2022/06/23 08:46:40;;;;;;;4.80;3.08;;;;;;;;;;5031738;28;20256;-50
2022/06/23 08:49:10;;;;;;;3.55;2.80;;;;;;;;;;5032042;28;20223;-51
2022/06/23 08:51:41;;;;;;;6.55;2.58;;;;;;;;;;5037730;28;20229;-51
2022/06/23 08:54:13;;;;;;;4.03;2.40;;;;;;;;;;5027112;28;20233;-50
2022/06/23 08:56:44;;;;;;;2.55;2.35;;;;;;;;;;5042686;28;20323;-51
2022/06/23 08:59:15;;;;;;;3.33;2.72;;;;;;;;;;5033304;28;20243;-50
2022/06/23 09:01:45;;;;;;;4.47;2.58;;;;;;;;;;5038476;28;20320;-51
2022/06/23 09:04:15;;;;;;;3.13;2.72;;;;;;;;;;5038232;28;20239;-51
2022/06/23 09:06:44;;;;;;;3.33;2.67;;;;;;;;;;5035729;28;20229;-51
2022/06/23 09:09:19;;;;;;;2.72;2.35;;;;;;;;;;5040488;28;20254;-52
2022/06/23 09:11:51;;;;;;;2.53;2.30;;;;;;;;;;5034827;28;20232;-51
2022/06/23 09:14:33;;;;;;;2.85;2.65;;;;;;;;;;5033988;28;20250;-51
2022/06/23 09:17:11;;;;;;;2.65;2.33;;;;;;;;;;5035431;28;20690;-51
2022/06/23 09:19:50;;;;;;;3.45;2.53;;;;;;;;;;5030344;28;20236;-50
2022/06/23 09:22:28;;;;;;;4.53;2.47;;;;;;;;;;5027222;28;20228;-50
2022/06/23 09:24:57;;;;;;;6.38;1.98;;;;;;;;;;5027951;28;20246;-51
2022/06/23 09:27:33;;;;;;;4.97;2.38;;;;;;;;;;5041137;28;20243;-50
2022/06/23 09:30:03;;;;;;;3.58;2.20;;;;;;;;;;5041932;28;20712;-50
2022/06/23 09:32:41;;;;;;;2.72;2.47;;;;;;;;;;5038788;28;20318;-51
2022/06/23 09:35:18;;;;;;;2.38;1.83;;;;;;;;;;5042630;28;20318;-51
2022/06/23 09:38:00;;;;;;;7.18;2.38;;;;;;;;;;5045208;28;20239;-50
2022/06/23 09:40:35;;;;;;;6.75;2.63;;;;;;;;;;5024613;28;20617;-51
2022/06/23 09:43:20;;;;;;;3.17;2.72;;;;;;;;;;5035572;28;20308;-51
2022/06/23 09:45:54;;;;;;;7.90;2.40;;;;;;;;;;5018637;28;20229;-51
2022/06/23 09:48:39;;;;;;;2.83;2.30;;;;;;;;;;5040335;28;20239;-50
2022/06/23 09:51:16;;;;;;;3.28;2.40;;;;;;;;;;5029362;28;20716;-51
2022/06/23 09:54:06;;;;;;;2.53;2.33;;;;;;;;;;5039515;28;20714;-51
2022/06/23 09:56:53;;;;;;;2.97;2.38;;;;;;;;;;5043040;28;20238;-51
2022/06/23 09:59:29;;;;;;;4.03;2.42;;;;;;;;;;5029674;28;20251;-51
2022/06/23 10:02:01;;;;;;;2.40;1.70;;;;;;;;;;5043084;28;20235;-55
2022/06/23 10:04:36;;;;;;;2.90;2.25;;;;;;;;;;5039764;28;20236;-51
2022/06/23 10:07:11;;;;;;;2.42;1.83;;;;;;;;;;5023563;28;20234;-51
2022/06/23 10:09:44;;;;;;;3.30;2.10;;;;;;;;;;5033861;28;20238;-51
2022/06/23 10:12:22;;;;;;;2.50;2.30;;;;;;;;;;5029310;28;20225;-51
2022/06/23 10:14:55;;;;;;;2.35;2.00;;;;;;;;;;5039702;28;20246;-51
2022/06/23 10:17:38;;;;;;;3.78;2.30;;;;;;;;;;5036192;28;20237;-51
2022/06/23 10:20:17;;;;;;;2.80;2.30;;;;;;;;;;5033535;28;20224;-50
2022/06/23 10:22:49;;;;;;;2.47;2.30;;;;;;;;;;5037066;28;20234;-51
2022/06/23 10:25:25;;;;;;;4.30;2.47;;;;;;;;;;5017627;28;20235;-51
2022/06/23 10:28:02;;;;;;;2.35;2.13;;;;;;;;;;5038553;28;20265;-51
2022/06/23 10:30:31;;;;;;;1.88;1.77;;;;;;;;;;5036907;28;20224;-50
2022/06/23 10:33:05;;;;;;;3.20;2.33;;;;;;;;;;5040947;28;20232;-50
2022/06/23 10:35:47;;;;;;;3.42;1.92;;;;;;;;;;5036882;28;20922;-51
2022/06/23 10:38:35;;;;;;;2.13;1.92;;;;;;;;;;5032126;28;20240;-51
2022/06/23 10:41:16;;;;;;;5.78;2.20;;;;;;;;;;5032497;28;20235;-50
2022/06/23 10:43:57;;;;;;;3.20;1.55;;;;;;;;;;5022264;28;20236;-51
2022/06/23 10:46:25;;;;;;;2.05;1.92;;;;;;;;;;5033083;28;20239;-50
2022/06/23 10:49:01;;;;;;;1.95;1.80;;;;;;;;;;5039436;28;20233;-50
2022/06/23 10:51:42;;;;;;;2.55;2.35;;;;;;;;;;5028882;28;20224;-51
2022/06/23 10:54:17;;;;;;;2.45;2.20;;;;;;;;;;4999207;28;20235;-51
2022/06/23 10:56:51;;;;;;;4.43;2.15;;;;;;;;;;5027437;28;20234;-51
2022/06/23 10:59:24;;;;;;;2.53;1.80;;;;;;;;;;5035047;28;20243;-51
2022/06/23 11:02:01;;;;;;;1.75;1.65;;;;;;;;;;5037986;28;20319;-50
2022/06/23 11:04:38;;;;;;;2.47;2.22;;;;;;;;;;5033540;28;20285;-51
2022/06/23 11:07:13;;;;;;;3.67;2.00;;;;;;;;;;5041616;28;20236;-51
2022/06/23 11:09:53;;;;;;;1.73;1.60;;;;;;;;;;5038265;28;20239;-50
2022/06/23 11:12:26;;;;;;;2.05;1.85;;;;;;;;;;5044223;28;20252;-52
2022/06/23 11:15:00;;;;;;;2.53;1.70;;;;;;;;;;5041424;28;20250;-51
2022/06/23 11:17:34;;;;;;;2.33;2.10;;;;;;;;;;5034285;28;20227;-51
2022/06/23 11:20:07;;;;;;;5.82;2.42;;;;;;;;;;5038407;28;20279;-50
2022/06/23 11:22:39;;;;;;;2.05;1.80;;;;;;;;;;5023117;28;20612;-50
2022/06/23 11:25:12;;;;;;;3.72;1.77;;;;;;;;;;5042825;28;20602;-50
2022/06/23 11:27:43;;;;;;;2.53;1.90;;;;;;;;;;5039269;28;20234;-51
2022/06/23 11:30:20;;;;;;;2.42;1.73;;;;;;;;;;5039712;28;20236;-51
2022/06/23 11:32:51;;;;;;;2.20;1.77;;;;;;;;;;5032001;28;20224;-53
2022/06/23 11:35:23;;;;;;;4.05;2.17;;;;;;;;;;5034525;28;20246;-50
2022/06/23 11:37:56;;;;;;;1.95;1.70;;;;;;;;;;5032762;28;20626;-51
2022/06/23 11:40:33;;;;;;;1.85;1.75;;;;;;;;;;5037123;28;20224;-51
2022/06/23 11:43:11;;;;;;;1.65;1.55;;;;;;;;;;5038584;28;20235;-51
2022/06/23 11:45:43;;;;;;;4.05;1.98;;;;;;;;;;5040496;28;20238;-51
2022/06/23 11:48:16;;;;;;;1.88;1.70;;;;;;;;;;5030981;28;20221;-51
2022/06/23 11:50:45;;;;;;;3.42;1.45;;;;;;;;;;5031859;28;20228;-51
2022/06/23 11:53:23;;;;;;;2.67;2.13;;;;;;;;;;5033719;28;20235;-51
2022/06/23 11:55:53;;;;;;;1.67;1.58;;;;;;;;;;5019974;28;20241;-51
2022/06/23 11:58:37;;;;;;;3.13;1.77;;;;;;;;;;5029093;28;20242;-50
2022/06/23 12:01:10;;;;;;;2.60;1.65;;;;;;;;;;5032767;28;20224;-51
2022/06/23 12:03:58;;;;;;;1.83;1.65;;;;;;;;;;5028913;28;20232;-51
2022/06/23 12:06:31;;;;;;;3.03;1.52;;;;;;;;;;5031323;28;20234;-50
2022/06/23 12:09:00;;;;;;;2.63;1.58;;;;;;;;;;5035934;28;20262;-50
2022/06/23 12:11:29;;;;;;;1.83;1.60;;;;;;;;;;5039763;28;20237;-50
2022/06/23 12:13:55;;;;;;;3.55;1.92;;;;;;;;;;5033326;28;20231;-51
2022/06/23 12:16:22;;;;;;;1.67;1.58;;;;;;;;;;5042034;28;20745;-51
2022/06/23 12:18:50;;;;;;;1.92;1.58;;;;;;;;;;5043882;28;20247;-50
2022/06/23 12:21:24;;;;;;;1.60;1.50;;;;;;;;;;5038332;28;20235;-51
2022/06/23 12:23:53;;;;;;;3.60;2.30;;;;;;;;;;5039245;28;20234;-53
2022/06/23 12:26:21;;;;;;;1.88;1.70;;;;;;;;;;5040422;28;20237;-50
2022/06/23 12:28:55;;;;;;;1.70;1.60;;;;;;;;;;5046225;28;20262;-50
2022/06/23 12:31:25;;;;;;;2.00;1.83;;;;;;;;;;5027151;28;20235;-50
2022/06/23 12:33:55;;;;;;;2.97;1.40;;;;;;;;;;5039229;28;20796;-50
2022/06/23 12:36:26;;;;;;;1.92;1.63;;;;;;;;;;5046743;28;20237;-50
2022/06/23 12:38:55;;;;;;;1.67;1.58;;;;;;;;;;5042770;28;20364;-51
2022/06/23 12:41:23;;;;;;;6.43;1.52;;;;;;;;;;5044802;28;20231;-51
2022/06/23 12:43:53;;;;;;;6.53;1.40;;;;;;;;;;5045551;28;20245;-51
2022/06/23 12:46:24;;;;;;;1.95;1.77;;;;;;;;;;5042316;28;20277;-51
2022/06/23 12:49:02;;;;;;;1.50;1.40;;;;;;;;;;5038731;28;20262;-52
2022/06/23 12:51:37;;;;;;;2.15;1.67;;;;;;;;;;5044234;28;20223;-51
2022/06/23 12:54:11;;;;;;;2.88;1.60;;;;;;;;;;5041709;28;20245;-50
2022/06/23 12:57:01;;;;;;;1.60;1.50;;;;;;;;;;5043880;28;20249;-50
2022/06/23 12:59:32;;;;;;;2.45;1.63;;;;;;;;;;5026004;28;20607;-51
2022/06/23 13:02:05;;;;;;;1.40;1.23;;;;;;;;;;5039068;28;20231;-50
2022/06/23 13:04:37;;;;;;;1.38;1.23;;;;;;;;;;5018238;28;20418;-51
2022/06/23 13:07:07;;;;;;;1.67;1.58;;;;;;;;;;5040116;28;20281;-51
2022/06/23 13:09:38;;;;;;;5.80;2.00;;;;;;;;;;5039532;28;20671;-50
2022/06/23 13:12:07;;;;;;;2.40;1.65;;;;;;;;;;5037485;28;21104;-51
2022/06/23 13:14:39;;;;;;;2.53;1.65;;;;;;;;;;5045337;28;20243;-51
2022/06/23 13:17:08;;;;;;;1.90;1.67;;;;;;;;;;5031675;28;20229;-51
2022/06/23 13:19:36;;;;;;;1.85;1.60;;;;;;;;;;5035856;28;20232;-50
2022/06/23 13:22:05;;;;;;;2.35;2.08;;;;;;;;;;5035969;28;20319;-50
2022/06/23 13:24:33;;;;;;;1.88;1.77;;;;;;;;;;5031172;28;20239;-51
2022/06/23 13:27:03;;;;;;;2.15;2.00;;;;;;;;;;5039845;28;20306;-50
2022/06/23 13:29:35;;;;;;;2.47;1.90;;;;;;;;;;5021876;28;20228;-50
2022/06/23 13:32:09;;;;;;;2.10;1.90;;;;;;;;;;5041950;28;20236;-52
2022/06/23 13:34:37;;;;;;;1.90;1.80;;;;;;;;;;5038866;28;20239;-51
2022/06/23 13:37:08;;;;;;;2.05;1.90;;;;;;;;;;5043519;28;20243;-50
2022/06/23 13:39:37;;;;;;;2.63;1.92;;;;;;;;;;5044834;28;20365;-50
2022/06/23 13:42:06;;;;;;;3.50;2.00;;;;;;;;;;5040305;28;20224;-50
2022/06/23 13:44:35;;;;;;;3.42;2.05;;;;;;;;;;5039044;28;20263;-50
2022/06/23 13:47:06;;;;;;;9.18;2.00;;;;;;;;;;5041056;28;20243;-51
2022/06/23 13:49:35;;;;;;;1.65;1.52;;;;;;;;;;5027594;28;20236;-51
2022/06/23 13:52:02;;;;;;;2.17;1.90;;;;;;;;;;5042306;28;20234;-52
2022/06/23 13:54:32;;;;;;;3.50;1.83;;;;;;;;;;5042441;28;20239;-50
2022/06/23 13:57:01;;;;;;;2.97;1.75;;;;;;;;;;5036936;28;20565;-52
2022/06/23 13:59:31;;;;;;;1.92;1.80;;;;;;;;;;5037071;28;20237;-50
2022/06/23 14:02:00;;;;;;;1.95;1.73;;;;;;;;;;5042482;28;20230;-50
2022/06/23 14:04:33;;;;;;;4.97;2.15;;;;;;;;;;5025063;28;20268;-51
2022/06/23 14:07:07;;;;;;;2.03;1.92;;;;;;;;;;5036893;28;20651;-53
2022/06/23 14:09:36;;;;;;;1.80;1.70;;;;;;;;;;5016478;28;20239;-51
2022/06/23 14:12:15;;;;;;;2.28;1.70;;;;;;;;;;5034192;28;20804;-51
2022/06/23 14:14:44;;;;;;;1.65;1.55;;;;;;;;;;5047227;28;20322;-50
2022/06/23 14:17:13;;;;;;;2.08;1.83;;;;;;;;;;5032045;28;20224;-50
2022/06/23 14:19:45;;;;;;;2.05;1.52;;;;;;;;;;5026469;28;20576;-50
2022/06/23 14:22:15;;;;;;;1.63;1.52;;;;;;;;;;5027830;28;20245;-50
2022/06/23 14:24:44;;;;;;;2.30;1.40;;;;;;;;;;5043124;28;20573;-50
2022/06/23 14:27:13;;;;;;;1.50;1.40;;;;;;;;;;5036875;28;20231;-51
2022/06/23 14:29:43;;;;;;;3.90;1.63;;;;;;;;;;5031431;28;20242;-51
2022/06/23 14:32:12;;;;;;;1.85;1.38;;;;;;;;;;5035088;28;20725;-50
2022/06/23 14:34:42;;;;;;;5.18;1.90;;;;;;;;;;5038365;28;20228;-51
2022/06/23 14:37:11;;;;;;;1.80;1.70;;;;;;;;;;5022703;28;20240;-50
2022/06/23 14:39:42;;;;;;;4.45;1.48;;;;;;;;;;5035225;28;20278;-51
2022/06/23 14:42:25;;;;;;;1.80;1.52;;;;;;;;;;5033445;28;20225;-50
2022/06/23 14:44:56;;;;;;;1.52;1.42;;;;;;;;;;5022670;28;20242;-50
2022/06/23 14:47:29;;;;;;;1.40;1.30;;;;;;;;;;5019829;28;20236;-52
2022/06/23 14:50:10;;;;;;;1.10;1.10;;;;;;;;;;5033527;28;20229;-52
2022/06/23 14:52:41;;;;;;;1.73;1.30;;;;;;;;;;5033559;28;20323;-51
2022/06/23 14:55:15;;;;;;;1.05;0.98;;;;;;;;;;5035334;28;20781;-50
2022/06/23 14:57:44;;;;;;;2.42;1.50;;;;;;;;;;5036036;28;20219;-51
2022/06/23 15:00:13;;;;;;;2.00;1.73;;;;;;;;;;5039924;28;20717;-50
2022/06/23 15:02:43;;;;;;;3.35;2.17;;;;;;;;;;5039229;28;20413;-50
2022/06/23 15:05:14;;;;;;;1.80;1.70;;;;;;;;;;5033376;28;20227;-50
2022/06/23 15:07:42;;;;;;;2.17;1.85;;;;;;;;;;5024366;28;20751;-51
2022/06/23 15:10:13;;;;;;;3.17;1.85;;;;;;;;;;5039688;28;20251;-51
2022/06/23 15:12:42;;;;;;;1.60;1.50;;;;;;;;;;5033942;28;20232;-51